Time;durP1;ratioP1;P1;durP2;ratioP2;P2;SDS_P1;SDS_P2;PMS_P1;PMS_P2;Temp;Humidity;BMP_temperature;BMP_pressure;BME280_temperature;BME280_humidity;BME280_pressure;Samples;Min_cycle;Max_cycle;Signal;HPM_P1;HPM_P2
2023/05/19 00:02:19;;;;;;;2.60;2.00;;;11.60;99.90;;;;;;5010376;28;20229;-73
2023/05/19 00:04:48;;;;;;;2.67;2.20;;;11.50;99.90;;;;;;5010196;28;20209;-73
2023/05/19 00:07:19;;;;;;;4.57;1.98;;;11.40;99.90;;;;;;5010241;28;20484;-73
2023/05/19 00:09:46;;;;;;;2.35;2.15;;;11.40;99.90;;;;;;4990969;28;20215;-73
2023/05/19 00:12:14;;;;;;;1.90;1.55;;;11.40;99.90;;;;;;4990478;28;20223;-73
2023/05/19 00:14:41;;;;;;;2.67;2.40;;;11.40;99.90;;;;;;4990509;28;20207;-73
2023/05/19 00:17:09;;;;;;;4.47;2.65;;;11.30;99.90;;;;;;4990710;28;20493;-73
2023/05/19 00:19:36;;;;;;;3.17;2.50;;;11.30;99.90;;;;;;4990151;28;20230;-73
2023/05/19 00:22:04;;;;;;;3.20;1.70;;;11.30;99.90;;;;;;4990704;28;20209;-73
2023/05/19 00:24:32;;;;;;;2.60;2.10;;;11.20;99.90;;;;;;4990578;28;20203;-73
2023/05/19 00:26:58;;;;;;;4.78;2.40;;;11.20;99.90;;;;;;4998045;28;20489;-73
2023/05/19 00:29:25;;;;;;;4.35;2.25;;;11.20;99.90;;;;;;5005919;28;20665;-73
2023/05/19 00:31:52;;;;;;;4.13;2.50;;;11.10;99.90;;;;;;4998862;28;20211;-73
2023/05/19 00:34:18;;;;;;;5.10;2.15;;;11.10;99.90;;;;;;4994022;28;20206;-73
2023/05/19 00:36:45;;;;;;;4.88;2.35;;;11.00;99.90;;;;;;4996379;28;20223;-73
2023/05/19 00:39:12;;;;;;;2.42;2.20;;;11.00;99.90;;;;;;5013071;28;20203;-73
2023/05/19 00:41:40;;;;;;;2.30;1.98;;;10.90;99.90;;;;;;5012034;28;20294;-73
2023/05/19 00:44:07;;;;;;;4.50;2.20;;;10.90;99.90;;;;;;4994026;28;20204;-73
2023/05/19 00:46:34;;;;;;;5.65;2.60;;;10.90;99.90;;;;;;5010715;28;20651;-73
2023/05/19 00:49:01;;;;;;;5.28;2.75;;;10.80;99.90;;;;;;5013190;28;20230;-73
2023/05/19 00:51:28;;;;;;;2.17;1.98;;;10.70;99.90;;;;;;5013616;28;20225;-73
2023/05/19 00:53:55;;;;;;;4.55;2.70;;;10.70;99.90;;;;;;5010008;28;21044;-73
2023/05/19 00:56:23;;;;;;;2.60;2.17;;;10.60;99.90;;;;;;4993838;28;20223;-73
2023/05/19 00:58:51;;;;;;;3.58;2.17;;;10.60;99.90;;;;;;4993007;28;20203;-73
2023/05/19 01:01:20;;;;;;;4.75;2.50;;;10.50;99.90;;;;;;4993614;28;20210;-73
2023/05/19 01:03:48;;;;;;;14.25;2.72;;;10.50;99.90;;;;;;4993694;28;20199;-73
2023/05/19 01:06:17;;;;;;;2.40;2.20;;;10.40;99.90;;;;;;4993603;28;20214;-73
2023/05/19 01:08:44;;;;;;;3.70;2.55;;;10.40;99.90;;;;;;4993005;28;20624;-73
2023/05/19 01:11:11;;;;;;;2.55;2.10;;;10.40;99.90;;;;;;4993586;28;20221;-73
2023/05/19 01:13:38;;;;;;;4.47;2.42;;;10.40;99.90;;;;;;4993428;28;20281;-73
2023/05/19 01:16:12;;;;;;;3.55;2.00;;;10.30;99.90;;;;;;4993336;28;20206;-73
2023/05/19 01:18:54;;;;;;;2.90;2.60;;;10.30;99.90;;;;;;4992905;28;20203;-72
2023/05/19 01:21:47;;;;;;;3.47;2.17;;;10.30;99.90;;;;;;4993248;28;20203;-73
2023/05/19 01:24:39;;;;;;;3.30;2.45;;;10.30;99.90;;;;;;4987809;28;20681;-73
2023/05/19 01:27:34;;;;;;;2.47;2.25;;;10.40;99.90;;;;;;4993331;28;20230;-73
2023/05/19 01:30:24;;;;;;;6.82;2.55;;;10.40;99.90;;;;;;4985835;28;20592;-73
2023/05/19 01:32:53;;;;;;;4.13;2.47;;;10.40;99.90;;;;;;4993010;28;20585;-73
2023/05/19 01:35:23;;;;;;;4.10;2.80;;;10.30;99.90;;;;;;4992949;28;20203;-73
2023/05/19 01:37:51;;;;;;;2.38;1.90;;;10.30;99.90;;;;;;4992292;28;20234;-73
2023/05/19 01:40:19;;;;;;;3.55;2.40;;;10.30;99.90;;;;;;4992790;28;20207;-73
2023/05/19 01:42:46;;;;;;;3.97;2.42;;;10.30;99.90;;;;;;4992902;28;20195;-73
2023/05/19 01:45:15;;;;;;;4.60;2.00;;;10.30;99.90;;;;;;4991594;28;20203;-73
2023/05/19 01:47:44;;;;;;;2.72;2.05;;;10.30;99.90;;;;;;5000244;28;20222;-73
2023/05/19 01:50:11;;;;;;;2.95;2.03;;;10.30;99.90;;;;;;4992688;28;20230;-73
2023/05/19 01:52:38;;;;;;;10.85;2.90;;;10.30;99.90;;;;;;5000790;28;20227;-73
2023/05/19 01:55:06;;;;;;;2.60;1.85;;;10.30;99.90;;;;;;4992674;28;20210;-73
2023/05/19 01:57:42;;;;;;;3.90;1.90;;;10.30;99.90;;;;;;4991965;28;20226;-73
2023/05/19 02:00:16;;;;;;;2.72;2.38;;;10.30;99.90;;;;;;4992512;28;20202;-73
2023/05/19 02:02:56;;;;;;;3.85;2.47;;;10.20;99.90;;;;;;4992351;28;20199;-73
2023/05/19 02:05:31;;;;;;;2.33;2.10;;;10.20;99.90;;;;;;4992651;28;20214;-73
2023/05/19 02:08:03;;;;;;;6.20;2.25;;;10.20;99.90;;;;;;4991862;28;20264;-72
2023/05/19 02:10:32;;;;;;;5.25;2.40;;;10.10;99.90;;;;;;4992346;28;20207;-73
2023/05/19 02:13:04;;;;;;;2.78;2.20;;;10.10;99.90;;;;;;4984662;28;20222;-73
2023/05/19 02:15:42;;;;;;;2.95;2.17;;;10.10;99.90;;;;;;4992530;28;20265;-73
2023/05/19 02:18:11;;;;;;;2.85;2.20;;;10.10;99.90;;;;;;4996516;28;20304;-73
2023/05/19 02:20:38;;;;;;;2.88;2.33;;;10.10;99.90;;;;;;5011390;28;20278;-73
2023/05/19 02:23:05;;;;;;;3.83;2.13;;;10.00;99.90;;;;;;4992448;28;20203;-73
2023/05/19 02:25:31;;;;;;;3.10;2.55;;;10.00;99.90;;;;;;5000360;28;20203;-73
2023/05/19 02:27:59;;;;;;;7.28;3.15;;;10.00;99.90;;;;;;4994350;28;20590;-73
2023/05/19 02:30:25;;;;;;;3.95;2.42;;;10.00;99.90;;;;;;5011317;28;20603;-73
2023/05/19 02:32:53;;;;;;;2.67;1.90;;;10.00;99.90;;;;;;5000888;28;20215;-73
2023/05/19 02:35:21;;;;;;;2.40;2.17;;;10.00;99.90;;;;;;5005876;28;20253;-73
2023/05/19 02:37:47;;;;;;;3.90;2.55;;;10.00;99.90;;;;;;4992760;28;20223;-72
2023/05/19 02:40:14;;;;;;;4.88;2.42;;;10.10;99.90;;;;;;5005008;28;20213;-72
2023/05/19 02:42:41;;;;;;;3.53;2.15;;;10.10;99.90;;;;;;5011399;28;20202;-73
2023/05/19 02:45:08;;;;;;;4.20;2.28;;;10.10;99.90;;;;;;5011158;28;20215;-73
2023/05/19 02:47:35;;;;;;;2.83;2.33;;;10.10;99.90;;;;;;5010712;28;20599;-73
2023/05/19 02:50:02;;;;;;;3.42;2.10;;;10.20;99.90;;;;;;4983747;28;20199;-73
2023/05/19 02:52:30;;;;;;;2.53;2.20;;;10.20;99.90;;;;;;4991493;28;20239;-73
2023/05/19 02:54:57;;;;;;;5.28;2.17;;;10.20;99.90;;;;;;5007557;28;20599;-73
2023/05/19 02:57:23;;;;;;;3.88;2.35;;;10.20;99.90;;;;;;4991051;28;20235;-73
2023/05/19 02:59:50;;;;;;;2.42;2.22;;;10.10;99.90;;;;;;4991042;28;20198;-73
2023/05/19 03:02:17;;;;;;;2.20;2.00;;;10.10;99.90;;;;;;4991516;28;20230;-73
2023/05/19 03:04:44;;;;;;;3.40;2.75;;;10.10;99.90;;;;;;5008418;28;20210;-73
2023/05/19 03:07:12;;;;;;;3.70;2.13;;;10.10;99.90;;;;;;5010773;28;20226;-73
2023/05/19 03:09:40;;;;;;;3.88;2.47;;;10.10;99.90;;;;;;5002024;28;20703;-72
2023/05/19 03:12:07;;;;;;;4.80;2.10;;;10.10;99.90;;;;;;4991421;28;20207;-72
2023/05/19 03:14:36;;;;;;;2.55;2.35;;;10.00;99.90;;;;;;4991203;28;20227;-72
2023/05/19 03:17:03;;;;;;;2.30;1.88;;;10.00;99.90;;;;;;4991311;28;20234;-73
2023/05/19 03:19:31;;;;;;;2.90;2.20;;;10.00;99.90;;;;;;4991005;28;20212;-72
2023/05/19 03:21:58;;;;;;;3.25;2.45;;;10.00;99.90;;;;;;4991340;28;20207;-72
2023/05/19 03:24:24;;;;;;;3.35;1.92;;;10.00;99.90;;;;;;4991155;28;20207;-73
2023/05/19 03:26:52;;;;;;;8.35;2.40;;;10.00;99.90;;;;;;4990952;28;20384;-72
2023/05/19 03:29:20;;;;;;;3.60;2.60;;;10.00;99.90;;;;;;4989324;28;20460;-70
2023/05/19 03:31:47;;;;;;;2.45;2.17;;;10.00;99.90;;;;;;5000391;28;20613;-72
2023/05/19 03:34:13;;;;;;;2.70;2.50;;;10.00;99.90;;;;;;5002417;28;20229;-73
2023/05/19 03:36:40;;;;;;;3.25;2.28;;;10.00;99.90;;;;;;5010529;28;20222;-72
2023/05/19 03:39:07;;;;;;;3.85;2.17;;;10.00;99.90;;;;;;5010021;28;20209;-72
2023/05/19 03:41:33;;;;;;;2.53;2.33;;;10.00;99.90;;;;;;5010550;28;20206;-72
2023/05/19 03:44:01;;;;;;;2.90;2.20;;;10.00;99.90;;;;;;5010280;28;20201;-72
2023/05/19 03:46:28;;;;;;;2.65;2.05;;;10.00;99.90;;;;;;4995642;28;20706;-72
2023/05/19 03:48:55;;;;;;;3.47;2.25;;;10.00;99.90;;;;;;5000476;28;20203;-72
2023/05/19 03:51:21;;;;;;;3.20;2.50;;;10.00;99.90;;;;;;5010438;28;20223;-72
2023/05/19 03:53:48;;;;;;;3.45;2.20;;;9.90;99.90;;;;;;5002349;28;20219;-72
2023/05/19 03:56:16;;;;;;;2.20;2.00;;;9.90;99.90;;;;;;5010470;28;20221;-72
2023/05/19 03:58:45;;;;;;;3.33;2.55;;;9.90;99.90;;;;;;4993822;28;20273;-72
2023/05/19 04:01:13;;;;;;;5.00;2.17;;;9.90;99.90;;;;;;5002326;28;20206;-72
2023/05/19 04:03:40;;;;;;;4.05;2.08;;;9.90;99.90;;;;;;5002515;28;20606;-73
2023/05/19 04:06:07;;;;;;;3.10;2.17;;;9.80;99.90;;;;;;4998828;28;20207;-72
2023/05/19 04:08:34;;;;;;;4.80;2.45;;;9.80;99.90;;;;;;4993584;28;20721;-72
2023/05/19 04:11:01;;;;;;;2.75;2.45;;;9.80;99.90;;;;;;5013603;28;20206;-72
2023/05/19 04:13:28;;;;;;;4.25;2.13;;;9.70;99.90;;;;;;5007821;28;20710;-72
2023/05/19 04:15:55;;;;;;;3.25;2.25;;;9.70;99.90;;;;;;5004319;28;20618;-72
2023/05/19 04:18:23;;;;;;;3.03;2.83;;;9.70;99.90;;;;;;5005877;28;20209;-72
2023/05/19 04:20:49;;;;;;;6.55;2.30;;;9.70;99.90;;;;;;4996854;28;20203;-72
2023/05/19 04:23:16;;;;;;;3.00;2.50;;;9.70;99.90;;;;;;4994681;28;20195;-72
2023/05/19 04:25:43;;;;;;;3.63;2.78;;;9.70;99.90;;;;;;4994744;28;20210;-71
2023/05/19 04:28:10;;;;;;;5.50;2.10;;;9.80;99.90;;;;;;4993694;28;20223;-71
2023/05/19 04:30:37;;;;;;;3.55;2.00;;;9.70;99.90;;;;;;5002535;28;20234;-72
2023/05/19 04:33:04;;;;;;;3.80;2.30;;;9.70;99.90;;;;;;4997134;28;20269;-72
2023/05/19 04:35:32;;;;;;;2.85;2.10;;;9.80;99.90;;;;;;4999363;28;20215;-71
2023/05/19 04:38:00;;;;;;;5.13;2.35;;;9.80;99.90;;;;;;4993647;28;20222;-72
2023/05/19 04:40:29;;;;;;;5.72;2.30;;;9.80;99.90;;;;;;4994189;28;20230;-72
2023/05/19 04:42:56;;;;;;;2.60;2.40;;;9.80;99.90;;;;;;4993983;28;20199;-72
2023/05/19 04:45:24;;;;;;;4.00;2.38;;;9.90;99.90;;;;;;4993941;28;20590;-72
2023/05/19 04:47:51;;;;;;;4.32;2.60;;;9.90;99.90;;;;;;4990954;28;20591;-72
2023/05/19 04:50:18;;;;;;;2.80;2.60;;;9.90;99.90;;;;;;4993910;28;20207;-72
2023/05/19 04:52:46;;;;;;;2.55;2.10;;;10.00;99.90;;;;;;4993998;28;20245;-72
2023/05/19 04:55:13;;;;;;;2.58;2.38;;;10.00;99.90;;;;;;4993563;28;20215;-72
2023/05/19 04:57:39;;;;;;;5.68;3.70;;;10.00;99.90;;;;;;4993244;28;20227;-72
2023/05/19 05:00:11;;;;;;;3.60;2.65;;;10.10;99.90;;;;;;4993356;28;20203;-72
2023/05/19 05:02:37;;;;;;;4.40;2.58;;;10.10;99.90;;;;;;4993976;28;20203;-72
2023/05/19 05:05:05;;;;;;;3.45;2.42;;;10.10;99.90;;;;;;4993464;28;20679;-72
2023/05/19 05:07:31;;;;;;;2.40;2.20;;;10.10;99.90;;;;;;4993189;28;20730;-72
2023/05/19 05:09:59;;;;;;;3.58;2.20;;;10.10;99.90;;;;;;4993719;28;20202;-71
2023/05/19 05:12:27;;;;;;;4.57;2.88;;;10.20;99.90;;;;;;4993485;28;20203;-72
2023/05/19 05:14:54;;;;;;;6.82;2.50;;;10.20;99.90;;;;;;4993489;28;20215;-72
2023/05/19 05:17:21;;;;;;;2.55;2.00;;;10.20;99.90;;;;;;4993257;28;20223;-71
2023/05/19 05:19:48;;;;;;;2.83;2.53;;;10.20;99.90;;;;;;4992980;28;20562;-71
2023/05/19 05:22:16;;;;;;;2.72;2.10;;;10.30;99.90;;;;;;4993436;28;20207;-72
2023/05/19 05:24:43;;;;;;;3.65;2.70;;;10.30;99.90;;;;;;4993379;28;20733;-72
2023/05/19 05:27:12;;;;;;;3.22;2.70;;;10.30;99.90;;;;;;4993101;28;20599;-72
2023/05/19 05:29:38;;;;;;;4.35;2.50;;;10.30;99.90;;;;;;4992872;28;20203;-72
2023/05/19 05:32:06;;;;;;;3.65;3.00;;;10.40;99.90;;;;;;4993067;28;20214;-72
2023/05/19 05:34:34;;;;;;;2.67;2.20;;;10.30;99.90;;;;;;4993258;28;20211;-72
2023/05/19 05:37:01;;;;;;;3.72;2.60;;;10.40;99.90;;;;;;4993046;28;20257;-72
2023/05/19 05:39:28;;;;;;;6.65;2.67;;;10.30;99.90;;;;;;4992611;28;20211;-72
2023/05/19 05:41:54;;;;;;;2.80;2.45;;;10.40;99.90;;;;;;4992810;28;20207;-72
2023/05/19 05:44:22;;;;;;;3.63;2.60;;;10.40;99.90;;;;;;4992865;28;20195;-72
2023/05/19 05:46:50;;;;;;;4.43;2.55;;;10.50;99.90;;;;;;4992858;28;20220;-72
2023/05/19 05:49:17;;;;;;;2.60;2.40;;;10.50;99.90;;;;;;4992415;28;20203;-72
2023/05/19 05:51:44;;;;;;;2.97;2.45;;;10.60;99.90;;;;;;4992964;28;20622;-72
2023/05/19 05:54:13;;;;;;;2.92;2.47;;;10.70;99.90;;;;;;4992544;28;20709;-72
2023/05/19 05:56:40;;;;;;;2.72;2.42;;;10.80;99.90;;;;;;4992779;28;20219;-72
2023/05/19 05:59:06;;;;;;;3.67;2.42;;;10.80;99.90;;;;;;4991877;28;20200;-72
2023/05/19 06:01:35;;;;;;;2.78;2.53;;;10.90;99.90;;;;;;4998494;28;20203;-71
2023/05/19 06:04:02;;;;;;;3.80;3.50;;;10.90;99.90;;;;;;5004351;28;20286;-72
2023/05/19 06:06:29;;;;;;;2.60;2.30;;;11.00;99.90;;;;;;5011830;28;20569;-72
2023/05/19 06:08:55;;;;;;;7.63;3.05;;;11.10;99.90;;;;;;4994487;28;20533;-71
2023/05/19 06:11:22;;;;;;;4.82;2.88;;;11.10;99.90;;;;;;5000456;28;20195;-72
2023/05/19 06:13:49;;;;;;;5.82;2.67;;;11.20;99.90;;;;;;5000579;28;20218;-72
2023/05/19 06:16:15;;;;;;;5.38;3.38;;;11.30;99.90;;;;;;4999963;28;20196;-72
2023/05/19 06:18:44;;;;;;;7.22;2.90;;;11.40;99.90;;;;;;4992016;28;20195;-71
2023/05/19 06:21:12;;;;;;;2.83;2.53;;;11.50;99.90;;;;;;4994775;28;20695;-72
2023/05/19 06:23:39;;;;;;;6.15;2.47;;;11.60;99.90;;;;;;5005271;28;20625;-72
2023/05/19 06:26:06;;;;;;;3.70;2.78;;;11.70;99.90;;;;;;5002182;28;20269;-71
2023/05/19 06:28:33;;;;;;;4.72;2.85;;;11.80;99.90;;;;;;5003161;28;20787;-72
2023/05/19 06:31:00;;;;;;;3.30;2.75;;;12.00;99.90;;;;;;4994646;28;20252;-71
2023/05/19 06:33:26;;;;;;;2.58;2.22;;;12.10;99.90;;;;;;4998489;28;20207;-71
2023/05/19 06:35:54;;;;;;;4.78;3.10;;;12.10;99.90;;;;;;4991895;28;20763;-72
2023/05/19 06:38:21;;;;;;;4.07;2.47;;;12.10;99.90;;;;;;4991531;28;20203;-72
2023/05/19 06:40:48;;;;;;;2.30;2.10;;;12.20;99.90;;;;;;5007800;28;20469;-72
2023/05/19 06:43:15;;;;;;;4.80;2.43;;;12.20;99.90;;;;;;4999878;28;20199;-72
2023/05/19 06:45:41;;;;;;;4.43;3.38;;;12.30;99.90;;;;;;5006886;28;20830;-71
2023/05/19 06:48:08;;;;;;;4.10;2.80;;;12.40;99.90;;;;;;5000335;28;20261;-72
2023/05/19 06:50:35;;;;;;;3.20;2.50;;;12.50;99.90;;;;;;5005969;28;20465;-72
2023/05/19 06:53:03;;;;;;;4.40;3.00;;;12.60;99.90;;;;;;5001858;28;20472;-72
2023/05/19 06:55:29;;;;;;;3.07;2.77;;;12.60;99.90;;;;;;5004714;28;20223;-72
2023/05/19 06:57:56;;;;;;;2.95;2.65;;;12.70;99.90;;;;;;5001908;28;20492;-72
2023/05/19 07:00:23;;;;;;;3.10;2.33;;;12.90;99.90;;;;;;4995568;28;20225;-71
2023/05/19 07:02:50;;;;;;;4.63;3.07;;;13.00;99.90;;;;;;5003171;28;20973;-72
2023/05/19 07:05:17;;;;;;;3.17;2.50;;;13.30;99.90;;;;;;5002932;28;20453;-72
2023/05/19 07:07:44;;;;;;;5.40;3.00;;;13.40;99.90;;;;;;4995480;28;20485;-72
2023/05/19 07:10:12;;;;;;;2.77;2.47;;;13.30;99.90;;;;;;4990925;28;20966;-71
2023/05/19 07:12:38;;;;;;;2.53;2.33;;;13.30;99.90;;;;;;4991609;28;20461;-72
2023/05/19 07:15:06;;;;;;;3.77;2.80;;;13.40;99.90;;;;;;4990914;28;20486;-72
2023/05/19 07:17:33;;;;;;;9.03;4.13;;;13.40;99.90;;;;;;4991008;28;20489;-71
2023/05/19 07:20:00;;;;;;;3.53;2.90;;;13.40;99.90;;;;;;4991096;28;20977;-71
2023/05/19 07:22:27;;;;;;;3.80;2.83;;;13.50;99.90;;;;;;4990977;28;20864;-71
2023/05/19 07:24:55;;;;;;;4.03;3.20;;;13.50;99.90;;;;;;4998846;28;20932;-71
2023/05/19 07:27:23;;;;;;;49.23;16.60;;;13.60;99.90;;;;;;4990855;28;20540;-71
2023/05/19 07:29:50;;;;;;;9.23;4.67;;;13.70;99.90;;;;;;4998809;28;20477;-71
2023/05/19 07:32:17;;;;;;;5.23;3.27;;;13.90;99.90;;;;;;4999260;28;20477;-71
2023/05/19 07:34:44;;;;;;;3.63;2.80;;;13.90;99.90;;;;;;4991156;28;20505;-71
2023/05/19 07:37:10;;;;;;;4.40;2.90;;;14.00;99.90;;;;;;4990619;28;20482;-71
2023/05/19 07:39:37;;;;;;;4.87;2.63;;;14.00;99.90;;;;;;4990677;28;20840;-71
2023/05/19 07:42:04;;;;;;;8.90;4.00;;;14.10;99.90;;;;;;4989854;28;20466;-71
2023/05/19 07:44:33;;;;;;;4.73;2.70;;;14.10;99.90;;;;;;4990788;28;20945;-71
2023/05/19 07:47:00;;;;;;;15.70;6.70;;;14.10;99.90;;;;;;4990864;28;20482;-71
2023/05/19 07:49:27;;;;;;;8.33;3.43;;;14.20;99.90;;;;;;4990586;28;20469;-71
2023/05/19 07:51:54;;;;;;;8.17;2.90;;;14.10;99.90;;;;;;4991190;28;20466;-71
2023/05/19 07:54:20;;;;;;;3.20;2.90;;;14.00;99.90;;;;;;4990687;28;20478;-71
2023/05/19 07:56:47;;;;;;;3.53;2.33;;;13.90;99.90;;;;;;4991184;28;20860;-71
2023/05/19 07:59:14;;;;;;;4.40;2.60;;;14.00;99.90;;;;;;4990266;28;20462;-71
2023/05/19 08:01:42;;;;;;;5.67;2.60;;;14.00;99.90;;;;;;4990925;28;20466;-72
2023/05/19 08:04:11;;;;;;;5.03;2.80;;;14.00;99.90;;;;;;4990796;28;20823;-71
2023/05/19 08:06:38;;;;;;;6.30;2.97;;;13.90;99.90;;;;;;4990923;28;20541;-71
2023/05/19 08:09:05;;;;;;;5.40;2.60;;;13.80;99.90;;;;;;4990216;28;20466;-71
2023/05/19 08:11:31;;;;;;;2.63;2.40;;;13.90;99.90;;;;;;4990900;28;20498;-71
2023/05/19 08:13:58;;;;;;;6.03;3.43;;;13.80;99.90;;;;;;4990784;28;20470;-72
2023/05/19 08:16:25;;;;;;;3.00;2.70;;;13.80;99.90;;;;;;4990407;28;20490;-71
2023/05/19 08:18:53;;;;;;;3.40;2.73;;;13.70;99.90;;;;;;4997478;28;20526;-72
2023/05/19 08:21:20;;;;;;;3.00;2.57;;;13.70;99.90;;;;;;4990695;28;20536;-71
2023/05/19 08:23:47;;;;;;;4.30;3.10;;;13.70;99.90;;;;;;4990683;28;20839;-72
2023/05/19 08:26:14;;;;;;;4.60;2.40;;;13.70;99.90;;;;;;5006794;28;20865;-73
2023/05/19 08:28:40;;;;;;;4.80;2.60;;;13.70;99.90;;;;;;4996319;28;20960;-72
2023/05/19 08:31:07;;;;;;;8.07;2.73;;;13.70;99.90;;;;;;5001842;28;20470;-72
2023/05/19 08:33:34;;;;;;;3.23;2.70;;;13.70;99.90;;;;;;4997396;28;20461;-73
2023/05/19 08:36:02;;;;;;;4.00;2.77;;;13.70;99.90;;;;;;4998969;28;20477;-72
2023/05/19 08:38:28;;;;;;;4.60;2.80;;;13.80;99.90;;;;;;5001566;28;20488;-71
2023/05/19 08:40:56;;;;;;;4.93;2.53;;;13.80;99.90;;;;;;5002237;28;20469;-72
2023/05/19 08:43:23;;;;;;;2.20;2.00;;;13.80;99.90;;;;;;5006532;28;20953;-71
2023/05/19 08:45:52;;;;;;;3.83;2.60;;;14.00;99.90;;;;;;4990521;28;20977;-71
2023/05/19 08:48:20;;;;;;;4.27;2.63;;;13.90;99.90;;;;;;4992335;28;20524;-72
2023/05/19 08:50:54;;;;;;;4.53;2.77;;;13.90;99.90;;;;;;4995613;28;20458;-72
2023/05/19 08:53:26;;;;;;;2.57;2.37;;;14.10;99.90;;;;;;4990985;28;20469;-72
2023/05/19 08:56:01;;;;;;;3.97;2.50;;;14.20;99.90;;;;;;4994089;28;20481;-72
2023/05/19 08:58:30;;;;;;;4.93;2.70;;;14.20;99.90;;;;;;4993413;28;20470;-71
2023/05/19 09:00:57;;;;;;;4.70;2.53;;;14.40;99.90;;;;;;4994154;28;20898;-72
2023/05/19 09:03:25;;;;;;;3.53;2.47;;;14.50;99.90;;;;;;4993471;28;20957;-72
2023/05/19 09:05:52;;;;;;;3.33;2.30;;;14.50;99.90;;;;;;5001832;28;20977;-72
2023/05/19 09:08:18;;;;;;;5.20;2.90;;;14.40;99.90;;;;;;4995437;28;20482;-72
2023/05/19 09:10:46;;;;;;;5.50;2.97;;;14.40;99.90;;;;;;5007202;28;20462;-71
2023/05/19 09:13:13;;;;;;;3.20;2.27;;;14.40;99.90;;;;;;5011504;28;20465;-71
2023/05/19 09:15:41;;;;;;;5.03;2.57;;;14.40;99.90;;;;;;5013293;28;20484;-72
2023/05/19 09:18:09;;;;;;;4.30;2.40;;;14.50;99.90;;;;;;5011938;28;20556;-71
2023/05/19 09:20:40;;;;;;;3.87;3.47;;;14.50;99.90;;;;;;5001876;28;20458;-72
2023/05/19 09:23:08;;;;;;;2.87;2.40;;;14.50;99.90;;;;;;5002101;28;20500;-72
2023/05/19 09:25:35;;;;;;;4.63;2.60;;;14.60;99.90;;;;;;5005050;28;20457;-72
2023/05/19 09:28:03;;;;;;;4.87;2.80;;;14.60;99.90;;;;;;5012478;28;20540;-71
2023/05/19 09:30:30;;;;;;;3.63;2.70;;;14.70;99.90;;;;;;4993223;28;20462;-71
2023/05/19 09:32:57;;;;;;;4.70;3.63;;;14.50;99.90;;;;;;5001161;28;20469;-71
2023/05/19 09:35:24;;;;;;;3.20;2.27;;;14.50;99.90;;;;;;5004242;28;20576;-71
2023/05/19 09:37:51;;;;;;;4.90;2.40;;;14.40;99.90;;;;;;4997695;28;20486;-71
2023/05/19 09:40:17;;;;;;;3.60;2.30;;;14.40;99.90;;;;;;5003188;28;20466;-71
2023/05/19 09:42:44;;;;;;;3.40;2.30;;;14.50;99.90;;;;;;5012723;28;20461;-71
2023/05/19 09:45:12;;;;;;;4.17;3.23;;;14.60;99.90;;;;;;5011141;28;20457;-71
2023/05/19 09:47:40;;;;;;;4.07;2.83;;;14.60;99.90;;;;;;4997605;28;20490;-71
2023/05/19 09:50:09;;;;;;;3.10;2.80;;;14.60;99.90;;;;;;5011698;28;20564;-71
2023/05/19 09:52:37;;;;;;;3.53;2.37;;;14.70;99.90;;;;;;4997582;28;20464;-72
2023/05/19 09:55:05;;;;;;;5.90;2.63;;;14.80;99.90;;;;;;5012166;28;20481;-72
2023/05/19 09:57:37;;;;;;;4.93;2.53;;;14.80;99.90;;;;;;5004078;28;20493;-72
2023/05/19 10:00:17;;;;;;;10.73;2.60;;;14.90;99.90;;;;;;4996037;28;20473;-71
2023/05/19 10:02:47;;;;;;;4.17;2.50;;;14.90;99.90;;;;;;4998700;28;20841;-71
2023/05/19 10:05:15;;;;;;;4.60;2.87;;;14.70;99.90;;;;;;4999574;28;20461;-71
2023/05/19 10:07:44;;;;;;;4.87;2.70;;;14.70;99.90;;;;;;5000331;28;20482;-71
2023/05/19 10:10:12;;;;;;;4.13;3.20;;;14.60;99.90;;;;;;5008717;28;20461;-71
2023/05/19 10:12:40;;;;;;;4.17;2.80;;;14.40;99.90;;;;;;5000888;28;20520;-71
2023/05/19 10:15:10;;;;;;;2.90;2.30;;;14.40;99.90;;;;;;5000205;28;20575;-72
2023/05/19 10:17:38;;;;;;;4.77;2.50;;;14.40;99.90;;;;;;4996155;28;20512;-72
2023/05/19 10:20:09;;;;;;;3.00;2.30;;;14.20;99.90;;;;;;5011631;28;20461;-71
2023/05/19 10:22:36;;;;;;;2.90;2.70;;;14.10;99.90;;;;;;5007705;28;20473;-71
2023/05/19 10:25:03;;;;;;;4.10;2.60;;;14.20;99.90;;;;;;5008641;28;20465;-72
2023/05/19 10:27:32;;;;;;;2.80;2.50;;;14.10;99.90;;;;;;4983954;28;20857;-72
2023/05/19 10:30:04;;;;;;;3.40;3.10;;;14.00;99.90;;;;;;4992208;28;20856;-71
2023/05/19 10:32:33;;;;;;;6.17;3.00;;;14.00;99.90;;;;;;4984348;28;20462;-72
2023/05/19 10:35:44;;;;;;;3.93;2.47;;;14.00;99.90;;;;;;4991797;28;20973;-71
2023/05/19 10:38:33;;;;;;;3.93;2.50;;;14.10;99.90;;;;;;4997323;28;20859;-72
2023/05/19 10:41:07;;;;;;;3.73;2.70;;;14.10;99.90;;;;;;4992050;28;20466;-71
2023/05/19 10:43:44;;;;;;;2.93;2.53;;;14.00;99.90;;;;;;5003727;28;21167;-71
2023/05/19 10:46:11;;;;;;;2.40;2.13;;;13.90;99.90;;;;;;5003170;28;20488;-71
2023/05/19 10:48:38;;;;;;;4.30;2.97;;;14.00;99.90;;;;;;5003128;28;20472;-71
2023/05/19 10:51:10;;;;;;;2.50;2.30;;;14.00;99.90;;;;;;4995247;28;20465;-71
2023/05/19 10:53:45;;;;;;;3.10;2.60;;;13.90;99.90;;;;;;4993046;28;20458;-71
2023/05/19 10:56:12;;;;;;;2.97;2.77;;;14.00;99.90;;;;;;4999604;28;20485;-71
2023/05/19 10:58:50;;;;;;;5.63;2.90;;;14.00;99.90;;;;;;4991276;28;20485;-71
2023/05/19 11:01:19;;;;;;;4.23;2.30;;;14.00;99.90;;;;;;5007857;28;20472;-71
2023/05/19 11:03:47;;;;;;;3.90;3.10;;;14.00;99.90;;;;;;4996985;28;20468;-71
2023/05/19 11:06:18;;;;;;;4.00;3.00;;;14.10;99.90;;;;;;5010791;28;20457;-71
2023/05/19 11:08:47;;;;;;;2.23;1.97;;;14.20;99.90;;;;;;5010766;28;20461;-71
2023/05/19 11:11:15;;;;;;;3.87;2.70;;;14.20;99.90;;;;;;4994921;28;20958;-72
2023/05/19 11:13:46;;;;;;;3.23;2.20;;;14.20;99.90;;;;;;5006463;28;20462;-71
2023/05/19 11:16:13;;;;;;;4.73;2.90;;;14.20;99.90;;;;;;4999733;28;21005;-73
2023/05/19 11:18:40;;;;;;;2.17;1.80;;;14.20;99.90;;;;;;4998028;28;20831;-72
2023/05/19 11:21:07;;;;;;;2.80;2.53;;;14.30;99.90;;;;;;4999642;28;20473;-71
2023/05/19 11:23:38;;;;;;;3.80;2.90;;;14.30;99.90;;;;;;5002551;28;20817;-72
2023/05/19 11:26:07;;;;;;;2.63;2.17;;;14.20;99.90;;;;;;5010914;28;20493;-71
2023/05/19 11:28:35;;;;;;;3.67;2.63;;;14.30;99.90;;;;;;4991009;28;21045;-71
2023/05/19 11:31:02;;;;;;;4.63;2.93;;;14.40;99.90;;;;;;4998461;28;20497;-71
2023/05/19 11:33:32;;;;;;;5.60;2.97;;;14.50;99.90;;;;;;5002171;28;20564;-72
2023/05/19 11:35:58;;;;;;;6.33;2.70;;;14.50;99.90;;;;;;5010583;28;20481;-71
2023/05/19 11:38:26;;;;;;;3.73;2.73;;;14.50;99.90;;;;;;4991572;28;20978;-71
2023/05/19 11:40:54;;;;;;;4.37;2.90;;;14.50;99.90;;;;;;4991026;28;20473;-72
2023/05/19 11:43:24;;;;;;;5.27;3.83;;;14.60;99.90;;;;;;4990730;28;20464;-71
2023/05/19 11:45:51;;;;;;;3.30;2.87;;;14.60;99.90;;;;;;4991646;28;20513;-72
2023/05/19 11:48:21;;;;;;;4.27;2.53;;;14.60;99.90;;;;;;4991403;28;20488;-72
2023/05/19 11:50:47;;;;;;;5.73;3.10;;;14.50;99.90;;;;;;4992685;28;20485;-72
2023/05/19 11:53:15;;;;;;;7.53;3.43;;;14.50;99.90;;;;;;4990820;28;20485;-71
2023/05/19 11:55:44;;;;;;;3.50;2.90;;;14.40;99.90;;;;;;4998946;28;20521;-71
2023/05/19 11:58:10;;;;;;;2.77;2.03;;;14.40;99.90;;;;;;4990280;28;20521;-71
2023/05/19 12:00:40;;;;;;;2.97;2.37;;;14.40;99.90;;;;;;5002553;28;20551;-71
2023/05/19 12:03:07;;;;;;;3.60;2.67;;;14.50;99.90;;;;;;5010566;28;20492;-72
2023/05/19 12:05:37;;;;;;;2.70;2.03;;;14.70;99.90;;;;;;5002114;28;20928;-72
2023/05/19 12:08:05;;;;;;;2.93;2.63;;;14.70;99.90;;;;;;5001973;28;20489;-71
2023/05/19 12:10:34;;;;;;;4.07;2.60;;;14.70;99.90;;;;;;4993908;28;20492;-72
2023/05/19 12:13:01;;;;;;;7.73;2.97;;;14.60;99.90;;;;;;4995582;28;20891;-72
2023/05/19 12:15:28;;;;;;;3.83;2.30;;;14.50;99.90;;;;;;4990450;28;20466;-72
2023/05/19 12:17:59;;;;;;;4.37;2.40;;;14.60;99.90;;;;;;4990244;28;20482;-72
2023/05/19 12:20:27;;;;;;;3.77;2.77;;;14.60;99.90;;;;;;4990528;28;20489;-71
2023/05/19 12:22:55;;;;;;;5.17;4.10;;;14.60;99.90;;;;;;4990763;28;20462;-72
2023/05/19 12:25:23;;;;;;;2.90;2.60;;;14.50;99.90;;;;;;4990416;28;20463;-71
2023/05/19 12:27:51;;;;;;;2.57;2.37;;;14.30;99.90;;;;;;4990613;28;20482;-72
2023/05/19 12:30:18;;;;;;;4.10;3.23;;;14.20;99.90;;;;;;4994107;28;20528;-72
2023/05/19 12:32:47;;;;;;;4.37;3.17;;;14.20;99.90;;;;;;4994460;28;20493;-71
2023/05/19 12:35:16;;;;;;;4.20;2.90;;;14.10;99.90;;;;;;4994308;28;20466;-72
2023/05/19 12:37:43;;;;;;;3.83;2.70;;;14.10;99.90;;;;;;4993594;28;20493;-71
2023/05/19 12:40:15;;;;;;;6.23;2.90;;;14.10;99.90;;;;;;4994290;28;20468;-72
2023/05/19 12:42:44;;;;;;;3.70;2.90;;;14.00;99.90;;;;;;4994400;28;20498;-71
2023/05/19 12:45:11;;;;;;;7.93;3.30;;;13.90;99.90;;;;;;4994560;28;20469;-71
2023/05/19 12:47:38;;;;;;;5.03;3.10;;;13.90;99.90;;;;;;5001715;28;20580;-71
2023/05/19 12:50:07;;;;;;;6.93;3.50;;;13.90;99.90;;;;;;5002405;28;20549;-72
2023/05/19 12:52:42;;;;;;;5.43;2.77;;;13.90;99.90;;;;;;5002126;28;20470;-72
2023/05/19 12:55:10;;;;;;;6.10;3.23;;;14.00;99.90;;;;;;5009814;28;20465;-72